createdAt,value
2023-01-03T00:01:26.257Z,102247.88
2023-01-03T00:03:56.290Z,102252.00
2023-01-03T00:06:29.077Z,102247.94
2023-01-03T00:08:57.657Z,102247.63
2023-01-03T00:11:47.175Z,102248.25
2023-01-03T00:14:17.038Z,102247.72
2023-01-03T00:16:47.005Z,102246.38
2023-01-03T00:19:14.923Z,102249.88
2023-01-03T00:21:42.393Z,102250.13
2023-01-03T00:24:13.129Z,102245.56
2023-01-03T00:26:45.997Z,102247.44
2023-01-03T00:29:13.492Z,102262.31
2023-01-03T00:31:44.155Z,102253.66
2023-01-03T00:34:19.726Z,102251.50
2023-01-03T00:36:46.646Z,102250.97
2023-01-03T00:39:13.830Z,102245.56
2023-01-03T00:41:43.631Z,102247.72
2023-01-03T00:44:12.103Z,102245.56
2023-01-03T00:46:38.921Z,102246.66
2023-01-03T00:49:07.582Z,102253.66
2023-01-03T00:51:36.275Z,102247.19
2023-01-03T00:54:04.485Z,102243.38
2023-01-03T00:56:37.340Z,102254.44
2023-01-03T00:59:04.869Z,102247.97
2023-01-03T01:01:40.626Z,102245.28
2023-01-03T01:04:15.473Z,102246.91
2023-01-03T01:06:44.846Z,102243.38
2023-01-03T01:09:15.081Z,102240.13
2023-01-03T01:11:42.113Z,102248.75
2023-01-03T01:14:20.312Z,102246.03
2023-01-03T01:16:55.667Z,102252.25
2023-01-03T01:19:29.107Z,102254.16
2023-01-03T01:21:56.124Z,102252.47
2023-01-03T01:24:26.524Z,102250.63
2023-01-03T01:26:54.259Z,102258.72
2023-01-03T01:29:21.325Z,102263.09
2023-01-03T01:31:48.731Z,102268.50
2023-01-03T01:34:16.077Z,102271.47
2023-01-03T01:36:43.623Z,102274.97
2023-01-03T01:39:21.713Z,102262.56
2023-01-03T01:42:30.561Z,102259.84
2023-01-03T01:45:00.136Z,102271.72
2023-01-03T01:48:01.876Z,102281.22
2023-01-03T01:50:39.033Z,102280.16
2023-01-03T01:53:10.698Z,102279.06
2023-01-03T01:55:43.588Z,102291.50
2023-01-03T01:58:10.848Z,102267.19
2023-01-03T02:00:38.043Z,102279.09
2023-01-03T02:03:05.312Z,102284.50
2023-01-03T02:05:34.164Z,102284.47
2023-01-03T02:08:01.887Z,102279.09
2023-01-03T02:10:41.036Z,102283.13
2023-01-03T02:13:35.477Z,102279.91
2023-01-03T02:16:16.935Z,102280.97
2023-01-03T02:19:05.430Z,102281.78
2023-01-03T02:22:14.565Z,102284.47
2023-01-03T02:25:01.724Z,102280.44
2023-01-03T02:27:45.558Z,102287.19
2023-01-03T02:30:33.080Z,102288.53
2023-01-03T02:33:07.424Z,102277.19
2023-01-03T02:35:53.392Z,102283.69
2023-01-03T02:38:34.068Z,102277.75
2023-01-03T02:41:12.153Z,102279.91
2023-01-03T02:43:52.660Z,102279.91
2023-01-03T02:46:45.107Z,102280.19
2023-01-03T02:49:22.898Z,102285.28
2023-01-03T02:51:55.541Z,102273.13
2023-01-03T02:55:07.030Z,102275.88
2023-01-03T02:57:53.844Z,102265.56
2023-01-03T03:00:26.695Z,102271.78
2023-01-03T03:03:14.856Z,102271.78
2023-01-03T03:05:52.036Z,102282.63
2023-01-03T03:08:19.011Z,102269.34
2023-01-03T03:11:04.993Z,102268.00
2023-01-03T03:13:38.010Z,102266.13
2023-01-03T03:16:43.351Z,102270.44
2023-01-03T03:19:50.993Z,102261.25
2023-01-03T03:22:39.271Z,102269.63
2023-01-03T03:25:21.630Z,102265.84
2023-01-03T03:28:10.038Z,102268.22
2023-01-03T03:30:40.883Z,102271.47
2023-01-03T03:33:08.963Z,102261.47
2023-01-03T03:35:50.685Z,102260.94
2023-01-03T03:38:23.302Z,102266.34
2023-01-03T03:41:24.332Z,102268.25
2023-01-03T03:44:28.734Z,102266.88
2023-01-03T03:47:05.556Z,102259.91
2023-01-03T03:49:37.788Z,102261.78
2023-01-03T03:52:07.949Z,102256.13
2023-01-03T03:54:37.372Z,102259.09
2023-01-03T03:57:12.430Z,102253.09
2023-01-03T03:59:41.875Z,102262.56
2023-01-03T04:02:09.577Z,102254.47
2023-01-03T04:04:38.929Z,102260.69
2023-01-03T04:07:06.073Z,102255.03
2023-01-03T04:09:32.803Z,102259.28
2023-01-03T04:11:59.589Z,102257.44
2023-01-03T04:14:26.864Z,102257.47
2023-01-03T04:16:56.069Z,102257.97
2023-01-03T04:19:23.112Z,102260.44
2023-01-03T04:21:49.967Z,102250.16
2023-01-03T04:24:17.024Z,102243.09
2023-01-03T04:26:43.765Z,102237.97
2023-01-03T04:29:10.738Z,102239.56
2023-01-03T04:31:37.724Z,102246.91
2023-01-03T04:34:07.032Z,102244.75
2023-01-03T04:36:33.963Z,102237.72
2023-01-03T04:39:00.918Z,102239.88
2023-01-03T04:41:27.677Z,102230.84
2023-01-03T04:44:05.081Z,102234.19
2023-01-03T04:46:34.473Z,102227.69
2023-01-03T04:49:01.973Z,102235.84
2023-01-03T04:51:31.719Z,102224.47
2023-01-03T04:53:59.077Z,102220.66
2023-01-03T04:56:31.230Z,102225.69
2023-01-03T04:58:58.245Z,102229.28
2023-01-03T05:01:25.584Z,102222.47
2023-01-03T05:03:57.620Z,102224.97
2023-01-03T05:06:24.458Z,102230.59
2023-01-03T05:08:51.283Z,102227.63
2023-01-03T05:11:18.082Z,102227.34
2023-01-03T05:13:44.988Z,102223.88
2023-01-03T05:16:14.328Z,102230.00
2023-01-03T05:18:42.577Z,102229.00
2023-01-03T05:21:32.953Z,102217.75
2023-01-03T05:24:18.958Z,102219.91
2023-01-03T05:26:46.426Z,102211.13
2023-01-03T05:29:14.739Z,102216.50
2023-01-03T05:31:41.575Z,102215.09
2023-01-03T05:34:08.675Z,102202.69
2023-01-03T05:36:35.488Z,102194.25
2023-01-03T05:39:02.359Z,102198.84
2023-01-03T05:41:47.703Z,102209.13
2023-01-03T05:44:14.895Z,102208.31
2023-01-03T05:46:41.781Z,102210.47
2023-01-03T05:49:08.679Z,102209.22
2023-01-03T05:51:35.858Z,102218.03
2023-01-03T05:54:06.138Z,102219.78
2023-01-03T05:56:33.069Z,102213.59
2023-01-03T05:59:03.125Z,102210.09
2023-01-03T06:01:29.941Z,102220.09
2023-01-03T06:03:56.945Z,102221.09
2023-01-03T06:06:23.955Z,102230.84
2023-01-03T06:08:50.899Z,102216.44
2023-01-03T06:11:20.838Z,102209.75
2023-01-03T06:13:47.678Z,102210.56
2023-01-03T06:16:35.525Z,102210.25
2023-01-03T06:19:03.873Z,102214.09
2023-01-03T06:21:30.837Z,102216.31
2023-01-03T06:23:57.617Z,102219.75
2023-01-03T06:26:26.556Z,102232.75
2023-01-03T06:28:53.672Z,102237.16
2023-01-03T06:31:20.699Z,102248.53
2023-01-03T06:33:48.340Z,102239.63
2023-01-03T06:36:17.669Z,102242.84
2023-01-03T06:38:46.624Z,102242.31
2023-01-03T06:41:14.135Z,102243.03
2023-01-03T06:43:41.710Z,102234.19
2023-01-03T06:46:29.097Z,102239.63
2023-01-03T06:49:16.677Z,102236.09
2023-01-03T06:52:03.104Z,102238.81
2023-01-03T06:54:32.238Z,102227.09
2023-01-03T06:56:59.749Z,102226.06
2023-01-03T06:59:26.678Z,102221.19
2023-01-03T07:01:54.545Z,102222.84
2023-01-03T07:04:25.849Z,102220.03
2023-01-03T07:06:53.065Z,102229.78
2023-01-03T07:09:19.824Z,102226.34
2023-01-03T07:11:46.675Z,102234.16
2023-01-03T07:14:13.628Z,102240.06
2023-01-03T07:16:42.681Z,102239.56
2023-01-03T07:19:13.412Z,102242.28
2023-01-03T07:21:40.377Z,102247.94
2023-01-03T07:24:08.264Z,102249.84
2023-01-03T07:26:35.804Z,102260.41
2023-01-03T07:29:05.015Z,102261.50
2023-01-03T07:31:35.448Z,102261.75
2023-01-03T07:34:02.643Z,102267.94
2023-01-03T07:36:29.869Z,102269.56
2023-01-03T07:38:57.020Z,102273.91
2023-01-03T07:41:45.084Z,102269.91
2023-01-03T07:44:12.433Z,102283.94
2023-01-03T07:46:39.299Z,102279.31
2023-01-03T07:49:11.382Z,102284.50
2023-01-03T07:51:39.824Z,102287.47
2023-01-03T07:54:07.742Z,102289.38
2023-01-03T07:56:34.842Z,102287.75
2023-01-03T07:59:02.255Z,102293.66
2023-01-03T08:01:30.749Z,102285.56
2023-01-03T08:03:58.144Z,102284.22
2023-01-03T08:06:25.760Z,102283.44
2023-01-03T08:09:11.575Z,102279.09
2023-01-03T08:11:57.494Z,102291.53
2023-01-03T08:14:27.046Z,102293.16
2023-01-03T08:16:55.610Z,102302.63
2023-01-03T08:19:24.716Z,102296.94
2023-01-03T08:21:51.639Z,102300.19
2023-01-03T08:24:18.688Z,102303.16
2023-01-03T08:26:45.574Z,102303.97
2023-01-03T08:29:12.543Z,102308.03
2023-01-03T08:31:44.842Z,102306.13
2023-01-03T08:34:18.435Z,102301.78
2023-01-03T08:36:49.183Z,102297.47
2023-01-03T08:39:18.037Z,102310.69
2023-01-03T08:41:52.751Z,102304.50
2023-01-03T08:44:19.643Z,102312.03
2023-01-03T08:46:49.709Z,102303.41
2023-01-03T08:49:17.834Z,102310.44
2023-01-03T08:51:44.661Z,102303.44
2023-01-03T08:54:11.440Z,102310.41
2023-01-03T08:56:39.631Z,102312.63
2023-01-03T08:59:07.101Z,102310.97
2023-01-03T09:01:34.580Z,102314.78
2023-01-03T09:04:01.648Z,102311.28
2023-01-03T09:06:28.434Z,102321.03
2023-01-03T09:08:58.180Z,102321.81
2023-01-03T09:11:25.283Z,102304.50
2023-01-03T09:13:52.119Z,102312.59
2023-01-03T09:16:19.222Z,102307.38
2023-01-03T09:18:46.130Z,102316.16
2023-01-03T09:21:12.998Z,102322.91
2023-01-03T09:23:40.335Z,102328.00
2023-01-03T09:26:07.885Z,102312.63
2023-01-03T09:28:34.950Z,102322.09
2023-01-03T09:31:02.386Z,102319.34
2023-01-03T09:33:30.949Z,102311.03
2023-01-03T09:35:57.864Z,102326.72
2023-01-03T09:38:24.762Z,102325.91
2023-01-03T09:41:19.701Z,102326.69
2023-01-03T09:43:48.139Z,102308.81
2023-01-03T09:46:25.538Z,102317.72
2023-01-03T09:48:53.506Z,102322.38
2023-01-03T09:51:45.355Z,102325.06
2023-01-03T09:54:52.348Z,102329.66
2023-01-03T09:57:43.851Z,102333.69
2023-01-03T10:00:41.440Z,102336.72
2023-01-03T10:03:44.790Z,102339.16
2023-01-03T10:06:38.541Z,102336.44
2023-01-03T10:09:18.822Z,102338.56
2023-01-03T10:12:00.843Z,102343.09
2023-01-03T10:15:09.419Z,102345.91
2023-01-03T10:17:39.502Z,102347.28
2023-01-03T10:20:36.565Z,102345.09
2023-01-03T10:23:06.186Z,102338.34
2023-01-03T10:25:33.096Z,102346.44
2023-01-03T10:28:09.458Z,102343.47
2023-01-03T10:31:03.773Z,102337.50
2023-01-03T10:33:40.277Z,102346.41
2023-01-03T10:36:08.771Z,102342.38
2023-01-03T10:38:44.889Z,102333.75
2023-01-03T10:41:48.342Z,102348.09
2023-01-03T10:44:27.666Z,102333.47
2023-01-03T10:46:56.901Z,102340.22
2023-01-03T10:49:29.295Z,102345.91
2023-01-03T10:52:12.877Z,102342.09
2023-01-03T10:54:56.880Z,102345.66
2023-01-03T10:57:48.542Z,102334.53
2023-01-03T11:00:23.249Z,102346.47
2023-01-03T11:02:50.691Z,102338.06
2023-01-03T11:05:20.555Z,102342.41
2023-01-03T11:07:56.341Z,102335.06
2023-01-03T11:10:24.608Z,102342.66
2023-01-03T11:12:51.851Z,102338.59
2023-01-03T11:15:18.939Z,102333.97
2023-01-03T11:17:55.885Z,102332.91
2023-01-03T11:20:58.120Z,102336.09
2023-01-03T11:23:46.743Z,102341.50
2023-01-03T11:26:27.804Z,102332.66
2023-01-03T11:29:30.140Z,102334.78
2023-01-03T11:32:08.255Z,102315.09
2023-01-03T11:35:23.781Z,102315.81
2023-01-03T11:38:10.432Z,102317.22
2023-01-03T11:40:55.914Z,102320.22
2023-01-03T11:43:41.401Z,102324.00
2023-01-03T11:46:18.112Z,102318.84
2023-01-03T11:48:57.234Z,102318.53
2023-01-03T11:51:52.198Z,102322.59
2023-01-03T11:55:13.863Z,102313.41
2023-01-03T11:57:55.666Z,102318.56
2023-01-03T12:00:37.556Z,102319.56
2023-01-03T12:03:09.029Z,102299.25
2023-01-03T12:06:04.584Z,102312.59
2023-01-03T12:08:51.738Z,102297.91
2023-01-03T12:11:40.516Z,102293.63
2023-01-03T12:14:20.012Z,102298.28
2023-01-03T12:16:53.568Z,102280.56
2023-01-03T12:19:34.179Z,102281.69
2023-01-03T12:22:33.348Z,102273.53
2023-01-03T12:25:38.097Z,102286.09
2023-01-03T12:28:12.646Z,102279.19
2023-01-03T12:31:01.574Z,102280.03
2023-01-03T12:33:32.050Z,102281.75
2023-01-03T12:36:02.486Z,102284.41
2023-01-03T12:38:38.577Z,102276.22
2023-01-03T12:41:26.001Z,102274.34
2023-01-03T12:44:01.516Z,102280.19
2023-01-03T12:46:43.601Z,102278.66
2023-01-03T12:49:16.296Z,102282.13
2023-01-03T12:51:43.099Z,102274.75
2023-01-03T12:54:20.978Z,102274.59
2023-01-03T12:56:57.561Z,102281.59
2023-01-03T12:59:39.645Z,102285.66
2023-01-03T13:02:23.316Z,102264.31
2023-01-03T13:04:54.139Z,102265.69
2023-01-03T13:07:30.055Z,102256.25
2023-01-03T13:10:08.344Z,102269.44
2023-01-03T13:12:35.923Z,102259.03
2023-01-03T13:15:03.129Z,102253.88
2023-01-03T13:17:31.856Z,102256.41
2023-01-03T13:20:00.263Z,102262.34
2023-01-03T13:22:57.304Z,102261.00
2023-01-03T13:25:27.092Z,102261.91
2023-01-03T13:27:56.405Z,102251.59
2023-01-03T13:30:25.552Z,102259.16
2023-01-03T13:33:16.736Z,102249.63
2023-01-03T13:35:46.661Z,102244.00
2023-01-03T13:38:24.522Z,102229.09
2023-01-03T13:43:48.709Z,102226.31
2023-01-03T13:46:23.625Z,102233.84
2023-01-03T13:48:57.035Z,102234.50
2023-01-03T13:51:33.210Z,102226.53
2023-01-03T13:54:12.350Z,102229.16
2023-01-03T13:56:45.475Z,102224.50
2023-01-03T13:59:23.307Z,102235.84
2023-01-03T14:02:15.204Z,102236.41
2023-01-03T14:05:00.864Z,102242.31
2023-01-03T14:08:02.949Z,102225.94
2023-01-03T14:10:48.278Z,102232.06
2023-01-03T14:13:38.774Z,102232.13
2023-01-03T14:16:19.947Z,102233.16
2023-01-03T14:18:52.292Z,102224.06
2023-01-03T14:21:28.726Z,102219.81
2023-01-03T14:24:01.187Z,102217.19
2023-01-03T14:26:28.370Z,102217.16
2023-01-03T14:28:56.987Z,102217.63
2023-01-03T14:31:27.001Z,102219.81
2023-01-03T14:33:59.765Z,102210.38
2023-01-03T14:36:27.853Z,102221.75
2023-01-03T14:39:00.540Z,102215.00
2023-01-03T14:41:38.373Z,102208.03
2023-01-03T14:44:09.142Z,102217.22
2023-01-03T14:46:37.389Z,102213.72
2023-01-03T14:49:11.621Z,102217.84
2023-01-03T14:51:40.411Z,102207.72
2023-01-03T14:54:07.435Z,102201.94
2023-01-03T14:56:35.452Z,102212.94
2023-01-03T14:59:06.944Z,102204.81
2023-01-03T15:01:33.937Z,102183.03
2023-01-03T15:04:01.612Z,102198.75
2023-01-03T15:06:30.281Z,102200.19
2023-01-03T15:08:59.768Z,102196.09
2023-01-03T15:12:01.807Z,102186.59
2023-01-03T15:14:31.732Z,102188.69
2023-01-03T15:17:10.723Z,102196.91
2023-01-03T15:19:47.997Z,102197.31
2023-01-03T15:22:19.994Z,102191.28
2023-01-03T15:24:49.687Z,102193.63
2023-01-03T15:27:52.235Z,102198.28
2023-01-03T15:30:23.668Z,102189.13
2023-01-03T15:33:25.084Z,102182.66
2023-01-03T15:35:54.538Z,102182.63
2023-01-03T15:38:38.504Z,102179.75
2023-01-03T15:41:43.582Z,102171.47
2023-01-03T15:44:11.224Z,102177.69
2023-01-03T15:46:38.679Z,102173.19
2023-01-03T15:49:43.485Z,102187.28
2023-01-03T15:52:14.580Z,102167.84
2023-01-03T15:54:43.102Z,102162.53
2023-01-03T15:57:14.668Z,102175.81
2023-01-03T15:59:43.628Z,102169.03
2023-01-03T16:02:16.221Z,102166.38
2023-01-03T16:04:47.812Z,102171.84
2023-01-03T16:07:15.612Z,102158.94
2023-01-03T16:09:42.943Z,102156.59
2023-01-03T16:12:20.184Z,102143.03
2023-01-03T16:14:55.123Z,102158.25
2023-01-03T16:17:28.391Z,102151.91
2023-01-03T16:19:59.962Z,102155.88
2023-01-03T16:22:35.827Z,102162.34
2023-01-03T16:25:05.597Z,102160.91
2023-01-03T16:27:32.695Z,102159.28
2023-01-03T16:29:59.749Z,102175.09
2023-01-03T16:32:28.839Z,102165.00
2023-01-03T16:35:05.415Z,102166.53
2023-01-03T16:37:32.256Z,102166.16
2023-01-03T16:39:59.215Z,102160.59
2023-01-03T16:42:29.582Z,102156.84
2023-01-03T16:44:56.769Z,102155.44
2023-01-03T16:47:26.601Z,102157.72
2023-01-03T16:50:17.616Z,102153.47
2023-01-03T16:52:48.835Z,102146.22
2023-01-03T16:55:30.034Z,102150.78
2023-01-03T16:57:57.604Z,102151.59
2023-01-03T17:00:26.837Z,102140.88
2023-01-03T17:03:03.128Z,102155.09
2023-01-03T17:05:35.707Z,102152.41
2023-01-03T17:08:16.196Z,102165.28
2023-01-03T17:10:46.973Z,102161.50
2023-01-03T17:13:27.444Z,102153.00
2023-01-03T17:15:59.090Z,102160.97
2023-01-03T17:18:31.315Z,102152.03
2023-01-03T17:21:01.250Z,102169.16
2023-01-03T17:23:29.224Z,102173.03
2023-01-03T17:25:56.761Z,102172.19
2023-01-03T17:28:24.451Z,102165.66
2023-01-03T17:30:54.551Z,102159.97
2023-01-03T17:33:26.252Z,102152.16
2023-01-03T17:35:57.254Z,102148.28
2023-01-03T17:38:26.061Z,102147.91
2023-01-03T17:40:55.460Z,102140.97
2023-01-03T17:43:24.342Z,102146.41
2023-01-03T17:46:16.115Z,102136.53
2023-01-03T17:49:06.273Z,102132.03
2023-01-03T17:51:35.828Z,102110.06
2023-01-03T17:54:03.720Z,102114.06
2023-01-03T17:56:31.271Z,102120.41
2023-01-03T17:58:58.171Z,102112.34
2023-01-03T18:01:25.341Z,102111.16
2023-01-03T18:03:52.969Z,102114.41
2023-01-03T18:06:21.932Z,102102.06
2023-01-03T18:08:51.844Z,102099.28
2023-01-03T18:11:22.181Z,102104.03
2023-01-03T18:13:49.915Z,102088.81
2023-01-03T18:16:23.759Z,102098.41
2023-01-03T18:18:50.899Z,102092.56
2023-01-03T18:21:19.315Z,102088.81
2023-01-03T18:23:46.248Z,102088.59
2023-01-03T18:26:14.532Z,102090.22
2023-01-03T18:28:42.039Z,102089.06
2023-01-03T18:31:16.374Z,102090.84
2023-01-03T18:33:43.943Z,102092.63
2023-01-03T18:36:26.057Z,102084.69
2023-01-03T18:39:16.602Z,102081.03
2023-01-03T18:41:43.888Z,102074.78
2023-01-03T18:44:26.005Z,102087.41
2023-01-03T18:46:53.152Z,102087.25
2023-01-03T18:49:19.997Z,102087.81
2023-01-03T18:51:48.541Z,102086.19
2023-01-03T18:54:21.267Z,102088.13
2023-01-03T18:56:51.351Z,102075.13
2023-01-03T18:59:20.955Z,102059.34
2023-01-03T19:01:51.023Z,102075.25
2023-01-03T19:04:18.179Z,102069.44
2023-01-03T19:06:47.520Z,102069.44
2023-01-03T19:09:22.890Z,102064.28
2023-01-03T19:11:50.835Z,102064.50
2023-01-03T19:14:17.996Z,102046.34
2023-01-03T19:16:48.220Z,102051.97
2023-01-03T19:19:15.400Z,102060.56
2023-01-03T19:21:45.163Z,102051.22
2023-01-03T19:24:24.077Z,102048.28
2023-01-03T19:26:54.518Z,102049.47
2023-01-03T19:29:37.132Z,102042.56
2023-01-03T19:32:30.508Z,102056.66
2023-01-03T19:34:57.649Z,102045.47
2023-01-03T19:37:24.728Z,102053.53
2023-01-03T19:39:51.777Z,102054.81
2023-01-03T19:42:39.707Z,102052.59
2023-01-03T19:45:29.463Z,102046.97
2023-01-03T19:47:57.868Z,102034.19
2023-01-03T19:50:31.314Z,102031.88
2023-01-03T19:52:58.633Z,102019.00
2023-01-03T19:55:28.641Z,102025.78
2023-01-03T19:57:56.322Z,102000.47
2023-01-03T20:00:32.467Z,102010.50
2023-01-03T20:03:02.546Z,102011.69
2023-01-03T20:05:35.475Z,102008.19
2023-01-03T20:08:13.968Z,101998.03
2023-01-03T20:10:41.882Z,101994.34
2023-01-03T20:13:31.953Z,101988.50
2023-01-03T20:16:04.767Z,101989.06
2023-01-03T20:18:36.581Z,101982.78
2023-01-03T20:21:29.074Z,101991.59
2023-01-03T20:23:59.843Z,102002.25
2023-01-03T20:26:30.951Z,101996.44
2023-01-03T20:28:58.932Z,101989.19
2023-01-03T20:31:26.056Z,101984.91
2023-01-03T20:33:53.192Z,101971.25
2023-01-03T20:36:25.979Z,101970.53
2023-01-03T20:38:55.644Z,101988.75
2023-01-03T20:41:38.748Z,101978.56
2023-01-03T20:44:09.033Z,101957.00
2023-01-03T20:46:36.128Z,101956.81
2023-01-03T20:49:03.671Z,101945.13
2023-01-03T20:51:31.027Z,101951.38
2023-01-03T20:53:58.416Z,101947.25
2023-01-03T20:56:29.319Z,101952.84
2023-01-03T20:58:56.074Z,101949.34
2023-01-03T21:01:24.800Z,101946.34
2023-01-03T21:03:54.619Z,101940.56
2023-01-03T21:06:24.635Z,101930.53
2023-01-03T21:08:57.603Z,101924.94
2023-01-03T21:11:33.962Z,101917.81
2023-01-03T21:14:01.802Z,101910.84
2023-01-03T21:16:34.030Z,101902.84
2023-01-03T21:19:03.620Z,101916.31
2023-01-03T21:21:32.471Z,101912.03
2023-01-03T21:24:00.093Z,101902.69
2023-01-03T21:26:27.117Z,101907.25
2023-01-03T21:28:56.427Z,101904.56
2023-01-03T21:31:31.508Z,101895.91
2023-01-03T21:33:58.980Z,101888.47
2023-01-03T21:36:33.739Z,101880.78
2023-01-03T21:39:01.341Z,101883.38
2023-01-03T21:41:32.836Z,101871.66
2023-01-03T21:44:08.123Z,101859.53
2023-01-03T21:46:38.128Z,101858.56
2023-01-03T21:49:05.086Z,101871.38
2023-01-03T21:51:38.919Z,101866.41
2023-01-03T21:54:07.923Z,101856.09
2023-01-03T21:56:46.995Z,101867.91
2023-01-03T21:59:15.468Z,101865.06
2023-01-03T22:02:03.465Z,101853.22
2023-01-03T22:04:36.507Z,101852.00
2023-01-03T22:07:05.876Z,101850.50
2023-01-03T22:09:56.680Z,101829.22
2023-01-03T22:12:24.108Z,101836.56
2023-01-03T22:14:51.200Z,101838.56
2023-01-03T22:17:18.095Z,101827.44
2023-01-03T22:19:48.135Z,101829.63
2023-01-03T22:22:19.317Z,101820.31
2023-01-03T22:24:46.495Z,101816.03
2023-01-03T22:27:13.997Z,101826.28
2023-01-03T22:29:43.923Z,101822.13
2023-01-03T22:32:10.958Z,101821.25
2023-01-03T22:34:38.220Z,101821.84
2023-01-03T22:37:05.189Z,101815.38
2023-01-03T22:39:32.144Z,101815.03
2023-01-03T22:41:59.058Z,101810.41
2023-01-03T22:44:29.878Z,101804.78
2023-01-03T22:46:56.757Z,101800.88
2023-01-03T22:49:23.656Z,101795.06
2023-01-03T22:51:52.458Z,101769.88
2023-01-03T22:54:23.109Z,101781.16
2023-01-03T22:56:51.415Z,101790.81
2023-01-03T22:59:20.609Z,101771.59
2023-01-03T23:01:49.249Z,101780.81
2023-01-03T23:04:19.318Z,101772.56
2023-01-03T23:06:46.979Z,101769.56
2023-01-03T23:09:14.253Z,101762.06
2023-01-03T23:12:10.541Z,101762.31
2023-01-03T23:14:45.956Z,101770.38
2023-01-03T23:17:31.480Z,101755.91
2023-01-03T23:20:01.448Z,101743.63
2023-01-03T23:22:31.396Z,101736.81
2023-01-03T23:24:58.996Z,101747.22
2023-01-03T23:27:27.476Z,101745.22
2023-01-03T23:29:55.155Z,101737.25
2023-01-03T23:32:23.405Z,101739.88
2023-01-03T23:34:53.681Z,101731.25
2023-01-03T23:37:22.694Z,101730.38
2023-01-03T23:39:50.030Z,101719.13
2023-01-03T23:42:16.938Z,101715.94
2023-01-03T23:44:44.544Z,101709.94
2023-01-03T23:47:12.711Z,101693.13
2023-01-03T23:49:40.312Z,101691.06
2023-01-03T23:52:07.491Z,101683.16
2023-01-03T23:54:39.504Z,101675.72
2023-01-03T23:57:06.473Z,101674.03
2023-01-03T23:59:34.641Z,101666.09
